Time;durP1;ratioP1;P1;durP2;ratioP2;P2;SDS_P1;SDS_P2;PMS_P1;PMS_P2;Temp;Humidity;BMP_temperature;BMP_pressure;BME280_temperature;BME280_humidity;BME280_pressure;Samples;Min_cycle;Max_cycle;Signal;HPM_P1;HPM_P2
2023/08/25 00:04:33;;;;;;;21.67;14.57;;;;;;;;;;12818857;23;20001;-71
2023/08/25 00:09:34;;;;;;;23.70;13.82;;;;;;;;;;12818835;23;20005;-71
2023/08/25 00:14:34;;;;;;;22.83;14.68;;;;;;;;;;12818517;23;20181;-71
2023/08/25 00:19:35;;;;;;;19.95;14.23;;;;;;;;;;12772030;23;20302;-71
2023/08/25 00:24:35;;;;;;;20.67;15.10;;;;;;;;;;12818495;23;20015;-70
2023/08/25 00:29:35;;;;;;;17.90;13.65;;;;;;;;;;12817710;23;20001;-71
2023/08/25 00:34:35;;;;;;;20.08;15.38;;;;;;;;;;12818490;23;19997;-70
2023/08/25 00:39:36;;;;;;;17.55;13.48;;;;;;;;;;12818220;23;19993;-71
2023/08/25 00:44:36;;;;;;;23.25;15.45;;;;;;;;;;12799863;23;20048;-70
2023/08/25 00:49:37;;;;;;;18.52;14.40;;;;;;;;;;12817474;23;20059;-70
2023/08/25 00:54:37;;;;;;;20.70;14.63;;;;;;;;;;12818016;23;20334;-70
2023/08/25 00:59:37;;;;;;;20.00;14.63;;;;;;;;;;12818169;23;20025;-70
2023/08/25 01:04:38;;;;;;;18.87;14.30;;;;;;;;;;12818530;23;20149;-70
2023/08/25 01:09:39;;;;;;;18.35;13.90;;;;;;;;;;12770532;23;20001;-71
2023/08/25 01:14:50;;;;;;;19.70;13.55;;;;;;;;;;12817702;23;20374;-71
2023/08/25 01:19:53;;;;;;;24.10;14.32;;;;;;;;;;12817494;23;20003;-71
2023/08/25 01:24:57;;;;;;;24.15;14.05;;;;;;;;;;12817271;23;19995;-70
2023/08/25 01:29:57;;;;;;;22.88;15.38;;;;;;;;;;12769984;23;20032;-70
2023/08/25 01:34:58;;;;;;;18.38;13.70;;;;;;;;;;12817427;23;20346;-71
2023/08/25 01:40:04;;;;;;;19.48;14.55;;;;;;;;;;12817140;23;20388;-69
2023/08/25 01:45:06;;;;;;;21.80;15.20;;;;;;;;;;12799200;23;20330;-71
2023/08/25 01:50:09;;;;;;;19.77;13.82;;;;;;;;;;12816578;23;20005;-72
2023/08/25 01:55:10;;;;;;;20.33;14.73;;;;;;;;;;12770008;23;20035;-70
2023/08/25 02:00:11;;;;;;;23.00;15.57;;;;;;;;;;12818456;23;20001;-71
2023/08/25 02:05:11;;;;;;;23.15;15.05;;;;;;;;;;12821161;23;20182;-71
2023/08/25 02:10:12;;;;;;;24.90;15.87;;;;;;;;;;12820769;23;20000;-71
2023/08/25 02:15:12;;;;;;;23.30;15.07;;;;;;;;;;12820859;23;19996;-70
2023/08/25 02:20:12;;;;;;;21.70;14.95;;;;;;;;;;12773490;23;20310;-70
2023/08/25 02:25:13;;;;;;;20.58;15.07;;;;;;;;;;12819845;23;20317;-70
2023/08/25 02:30:14;;;;;;;23.33;14.27;;;;;;;;;;12820379;23;20055;-70
2023/08/25 02:35:14;;;;;;;21.15;14.98;;;;;;;;;;12821194;23;20159;-70
2023/08/25 02:40:14;;;;;;;24.13;15.23;;;;;;;;;;12816756;23;20224;-70
2023/08/25 02:45:14;;;;;;;21.07;16.23;;;;;;;;;;12771226;23;20025;-70
2023/08/25 02:50:15;;;;;;;35.03;19.02;;;;;;;;;;12818998;23;20059;-69
2023/08/25 02:55:17;;;;;;;25.10;18.70;;;;;;;;;;12818840;23;19988;-69
2023/08/25 03:00:25;;;;;;;32.90;21.63;;;;;;;;;;12819336;23;19989;-69
2023/08/25 03:05:25;;;;;;;34.58;21.73;;;;;;;;;;12818898;23;19989;-70
2023/08/25 03:10:26;;;;;;;32.22;18.75;;;;;;;;;;12818624;23;20113;-70
2023/08/25 03:15:26;;;;;;;27.50;17.90;;;;;;;;;;12772276;23;20196;-70
2023/08/25 03:20:26;;;;;;;23.95;17.23;;;;;;;;;;12820863;23;19997;-70
2023/08/25 03:25:26;;;;;;;26.17;16.75;;;;;;;;;;12820781;23;20268;-69
2023/08/25 03:30:27;;;;;;;26.55;18.65;;;;;;;;;;12819198;23;20212;-70
2023/08/25 03:35:27;;;;;;;22.83;15.93;;;;;;;;;;12815703;23;19989;-69
2023/08/25 03:40:27;;;;;;;25.85;17.77;;;;;;;;;;12814560;23;20310;-69
2023/08/25 03:45:27;;;;;;;28.27;17.08;;;;;;;;;;12817123;23;20338;-69
2023/08/25 03:50:28;;;;;;;24.25;17.75;;;;;;;;;;12815677;23;20258;-69
2023/08/25 03:55:28;;;;;;;23.52;16.70;;;;;;;;;;12815243;23;19997;-70
2023/08/25 04:00:29;;;;;;;22.60;16.73;;;;;;;;;;12815139;23;20004;-69
2023/08/25 04:05:29;;;;;;;26.70;18.17;;;;;;;;;;12817975;23;20001;-69
2023/08/25 04:10:30;;;;;;;22.83;17.08;;;;;;;;;;12818713;23;19997;-70
2023/08/25 04:15:30;;;;;;;22.10;16.80;;;;;;;;;;12772533;23;20165;-69
2023/08/25 04:20:31;;;;;;;23.40;17.13;;;;;;;;;;12819060;23;20000;-69
2023/08/25 04:25:31;;;;;;;26.95;17.65;;;;;;;;;;12818615;23;20369;-70
2023/08/25 04:30:31;;;;;;;23.90;16.60;;;;;;;;;;12818530;23;20349;-70
2023/08/25 04:35:32;;;;;;;25.52;17.27;;;;;;;;;;12771786;23;20280;-70
2023/08/25 04:40:32;;;;;;;24.27;17.83;;;;;;;;;;12771493;23;19997;-71
2023/08/25 04:45:32;;;;;;;29.02;17.45;;;;;;;;;;12771137;23;20040;-70
2023/08/25 04:50:32;;;;;;;22.70;16.58;;;;;;;;;;12818231;23;20056;-73
2023/08/25 04:55:33;;;;;;;22.08;16.67;;;;;;;;;;12817955;23;20040;-73
2023/08/25 05:00:33;;;;;;;24.65;16.90;;;;;;;;;;12754417;23;20288;-72
2023/08/25 05:05:33;;;;;;;29.92;19.05;;;;;;;;;;12803282;23;20020;-71
2023/08/25 05:10:34;;;;;;;29.80;17.85;;;;;;;;;;12802585;23;20176;-72
2023/08/25 05:15:34;;;;;;;31.48;19.63;;;;;;;;;;12753038;23;20020;-72
2023/08/25 05:20:34;;;;;;;25.13;16.60;;;;;;;;;;12799913;23;20243;-73
2023/08/25 05:25:35;;;;;;;27.88;17.35;;;;;;;;;;12800565;23;20338;-75
2023/08/25 05:30:35;;;;;;;32.22;17.48;;;;;;;;;;12800072;23;20107;-74
2023/08/25 05:35:35;;;;;;;23.17;16.92;;;;;;;;;;12754798;23;20023;-72
2023/08/25 05:40:35;;;;;;;27.42;18.63;;;;;;;;;;12801491;23;19993;-73
2023/08/25 05:45:36;;;;;;;28.15;17.77;;;;;;;;;;12802141;23;20001;-72
2023/08/25 05:50:36;;;;;;;30.17;19.10;;;;;;;;;;12802215;23;20068;-70
2023/08/25 05:55:36;;;;;;;31.05;17.38;;;;;;;;;;12802431;23;19997;-71
2023/08/25 06:00:37;;;;;;;33.85;16.92;;;;;;;;;;12801755;23;20299;-71
2023/08/25 06:05:37;;;;;;;27.90;15.77;;;;;;;;;;12800069;23;20195;-71
2023/08/25 06:10:38;;;;;;;24.02;15.57;;;;;;;;;;12799693;23;20005;-71
2023/08/25 06:15:38;;;;;;;20.63;14.80;;;;;;;;;;12798664;23;20036;-70
2023/08/25 06:20:41;;;;;;;22.58;15.10;;;;;;;;;;12799804;23;20001;-71
2023/08/25 06:25:43;;;;;;;20.27;13.35;;;;;;;;;;12802341;23;19997;-71
2023/08/25 06:30:43;;;;;;;19.17;12.23;;;;;;;;;;12754220;23;20315;-71
2023/08/25 06:35:44;;;;;;;19.70;11.98;;;;;;;;;;12800537;23;20303;-72
2023/08/25 06:40:44;;;;;;;19.37;13.30;;;;;;;;;;12799928;23;20024;-71
2023/08/25 06:45:44;;;;;;;17.07;12.57;;;;;;;;;;12755680;23;20478;-71
2023/08/25 06:50:44;;;;;;;23.77;12.95;;;;;;;;;;12804470;23;20036;-71
2023/08/25 06:55:45;;;;;;;16.85;11.98;;;;;;;;;;12805348;23;20260;-71
2023/08/25 07:00:45;;;;;;;20.23;11.77;;;;;;;;;;12805147;23;20004;-72
2023/08/25 07:05:46;;;;;;;17.02;11.02;;;;;;;;;;12758716;23;20351;-71
2023/08/25 07:10:47;;;;;;;18.23;9.73;;;;;;;;;;12806175;23;20257;-71
2023/08/25 07:15:47;;;;;;;16.92;10.57;;;;;;;;;;12805808;23;19997;-71
2023/08/25 07:20:47;;;;;;;30.10;12.68;;;;;;;;;;12804132;23;20039;-71
2023/08/25 07:25:51;;;;;;;18.95;9.65;;;;;;;;;;12802969;23;20255;-71
2023/08/25 07:30:51;;;;;;;15.40;9.95;;;;;;;;;;12803447;23;20379;-71
2023/08/25 07:35:52;;;;;;;17.92;9.95;;;;;;;;;;12802883;23;20284;-72
2023/08/25 07:40:52;;;;;;;14.35;9.60;;;;;;;;;;12799826;23;20364;-71
2023/08/25 07:45:54;;;;;;;14.80;8.85;;;;;;;;;;12802804;23;20179;-73
2023/08/25 07:50:54;;;;;;;10.43;7.93;;;;;;;;;;12806293;23;20297;-73
2023/08/25 07:55:54;;;;;;;16.83;7.63;;;;;;;;;;12761671;23;20139;-73
2023/08/25 08:00:55;;;;;;;8.40;6.05;;;;;;;;;;12806995;23;20017;-73
2023/08/25 08:05:55;;;;;;;12.13;5.97;;;;;;;;;;12807458;23;20303;-73
2023/08/25 08:10:55;;;;;;;15.07;6.38;;;;;;;;;;12760131;23;20005;-73
2023/08/25 08:15:56;;;;;;;9.95;6.07;;;;;;;;;;12808901;23;20060;-72
2023/08/25 08:20:56;;;;;;;10.10;5.00;;;;;;;;;;12808007;23;20287;-72
2023/08/25 08:25:58;;;;;;;10.63;4.70;;;;;;;;;;12807912;23;19997;-73
2023/08/25 08:30:58;;;;;;;8.73;4.35;;;;;;;;;;12808064;23;20211;-72
2023/08/25 08:35:58;;;;;;;11.07;4.63;;;;;;;;;;12760833;23;20001;-73
2023/08/25 08:40:59;;;;;;;11.70;5.10;;;;;;;;;;12805380;23;20032;-73
2023/08/25 08:46:00;;;;;;;7.05;4.43;;;;;;;;;;12806780;23;19997;-73
2023/08/25 08:51:01;;;;;;;10.63;4.72;;;;;;;;;;12805671;23;20287;-73
2023/08/25 08:56:02;;;;;;;9.48;4.80;;;;;;;;;;12803976;23;20334;-73
2023/08/25 09:01:03;;;;;;;6.27;4.77;;;;;;;;;;12803208;23;20234;-73
2023/08/25 09:06:03;;;;;;;13.23;4.70;;;;;;;;;;12806210;23;20004;-74
2023/08/25 09:11:04;;;;;;;6.38;3.60;;;;;;;;;;12806223;23;20005;-74
2023/08/25 09:16:12;;;;;;;4.95;3.85;;;;;;;;;;12806935;23;19989;-73
2023/08/25 09:21:31;;;;;;;6.22;3.83;;;;;;;;;;12807489;23;20333;-73
2023/08/25 09:26:37;;;;;;;6.70;4.40;;;;;;;;;;12806699;23;20275;-72
2023/08/25 09:31:38;;;;;;;7.30;4.30;;;;;;;;;;12806856;23;20000;-73
2023/08/25 09:36:52;;;;;;;8.95;3.58;;;;;;;;;;12807041;23;20195;-73
2023/08/25 09:41:52;;;;;;;9.52;3.40;;;;;;;;;;12759186;23;20013;-73
2023/08/25 09:46:52;;;;;;;6.15;4.57;;;;;;;;;;12807062;23;20067;-73
2023/08/25 09:51:54;;;;;;;10.55;5.22;;;;;;;;;;12806692;23;20004;-74
2023/08/25 09:56:55;;;;;;;9.07;4.18;;;;;;;;;;12806704;23;20191;-73
2023/08/25 10:01:57;;;;;;;8.48;3.22;;;;;;;;;;12806316;23;20199;-73
2023/08/25 10:06:59;;;;;;;6.70;3.35;;;;;;;;;;12807582;23;19997;-74
2023/08/25 10:11:59;;;;;;;5.07;2.85;;;;;;;;;;12804817;23;20024;-73
2023/08/25 10:17:01;;;;;;;6.55;3.10;;;;;;;;;;12806270;23;20279;-74
2023/08/25 10:22:04;;;;;;;6.20;3.08;;;;;;;;;;12808113;23;19993;-72
2023/08/25 10:27:04;;;;;;;6.05;2.45;;;;;;;;;;12809996;23;20099;-74
2023/08/25 10:32:05;;;;;;;4.80;2.47;;;;;;;;;;12810353;23;20044;-70
2023/08/25 10:37:09;;;;;;;8.00;1.83;;;;;;;;;;12809891;23;20004;-77
2023/08/25 10:42:09;;;;;;;2.88;2.45;;;;;;;;;;12803469;23;20080;-73
2023/08/25 10:47:10;;;;;;;4.40;1.87;;;;;;;;;;12810155;23;20039;-73
2023/08/25 10:52:14;;;;;;;4.00;2.70;;;;;;;;;;12798776;23;20087;-72
2023/08/25 10:57:18;;;;;;;6.63;2.03;;;;;;;;;;12810786;23;20019;-70
2023/08/25 11:02:35;;;;;;;7.00;2.13;;;;;;;;;;12809318;23;19997;-71
2023/08/25 11:07:42;;;;;;;2.95;2.40;;;;;;;;;;12809219;23;20011;-71
2023/08/25 11:12:42;;;;;;;4.70;2.92;;;;;;;;;;12810024;23;20009;-70
2023/08/25 11:17:43;;;;;;;9.85;3.22;;;;;;;;;;12809805;23;20016;-70
2023/08/25 11:22:54;;;;;;;4.38;2.80;;;;;;;;;;12809327;23;20172;-71
2023/08/25 11:27:54;;;;;;;7.90;3.17;;;;;;;;;;12809426;23;20235;-71
2023/08/25 11:32:55;;;;;;;5.72;4.03;;;;;;;;;;12809149;23;20000;-72
2023/08/25 11:37:55;;;;;;;11.63;4.10;;;;;;;;;;12809812;23;20291;-71
2023/08/25 11:42:56;;;;;;;5.25;3.75;;;;;;;;;;12763633;23;20370;-71
2023/08/25 11:47:56;;;;;;;10.05;4.18;;;;;;;;;;12809498;23;20009;-71
2023/08/25 11:52:57;;;;;;;7.53;4.37;;;;;;;;;;12809547;23;19997;-72
2023/08/25 11:57:57;;;;;;;12.10;3.80;;;;;;;;;;12809306;23;20676;-72
2023/08/25 12:02:58;;;;;;;7.78;4.28;;;;;;;;;;12762252;23;20055;-72
2023/08/25 12:08:02;;;;;;;4.13;3.67;;;;;;;;;;12808984;23;19997;-71
2023/08/25 12:13:02;;;;;;;9.18;4.82;;;;;;;;;;12809050;23;19993;-70
2023/08/25 12:18:03;;;;;;;6.27;3.53;;;;;;;;;;12808310;23;20306;-70
2023/08/25 12:23:03;;;;;;;6.40;3.87;;;;;;;;;;12808186;23;20401;-70
2023/08/25 12:28:03;;;;;;;8.23;4.30;;;;;;;;;;12808767;23;20017;-70
2023/08/25 12:33:05;;;;;;;9.23;4.07;;;;;;;;;;12761218;23;20059;-70
2023/08/25 12:38:06;;;;;;;8.32;3.22;;;;;;;;;;12808191;23;20008;-70
2023/08/25 12:43:06;;;;;;;6.57;3.35;;;;;;;;;;12796367;23;20001;-70
2023/08/25 12:48:07;;;;;;;6.72;3.22;;;;;;;;;;12761232;23;20008;-70
2023/08/25 12:53:08;;;;;;;6.45;3.70;;;;;;;;;;12807811;23;19993;-70
2023/08/25 12:58:08;;;;;;;7.47;3.37;;;;;;;;;;12760402;23;20039;-70
2023/08/25 13:03:08;;;;;;;6.82;2.92;;;;;;;;;;12808336;23;19993;-70
2023/08/25 13:08:08;;;;;;;8.10;3.40;;;;;;;;;;12807370;23;20060;-70
2023/08/25 13:13:09;;;;;;;8.32;3.33;;;;;;;;;;12807557;23;19989;-70
2023/08/25 13:18:09;;;;;;;12.95;3.33;;;;;;;;;;12807636;23;20005;-70
2023/08/25 13:23:09;;;;;;;12.13;3.70;;;;;;;;;;12807646;23;19997;-70
2023/08/25 13:28:09;;;;;;;14.55;2.97;;;;;;;;;;12759301;23;20215;-70
2023/08/25 13:33:10;;;;;;;7.97;3.50;;;;;;;;;;12807982;23;20005;-70
2023/08/25 13:38:10;;;;;;;15.45;3.42;;;;;;;;;;12806572;23;20353;-70
2023/08/25 13:43:10;;;;;;;8.50;3.17;;;;;;;;;;12796238;23;19997;-71
2023/08/25 13:48:11;;;;;;;8.35;3.05;;;;;;;;;;12808076;23;19997;-73
2023/08/25 13:53:11;;;;;;;8.93;2.97;;;;;;;;;;12806322;23;20020;-74
2023/08/25 13:58:12;;;;;;;13.50;3.00;;;;;;;;;;12809622;23;20040;-74
2023/08/25 14:03:12;;;;;;;10.97;3.53;;;;;;;;;;12810152;23;20347;-75
2023/08/25 14:08:12;;;;;;;13.43;4.17;;;;;;;;;;12810461;23;19993;-73
2023/08/25 14:13:13;;;;;;;10.10;3.00;;;;;;;;;;12810221;23;20270;-73
2023/08/25 14:18:13;;;;;;;11.00;4.60;;;;;;;;;;12810762;23;20069;-74
2023/08/25 14:23:14;;;;;;;9.17;3.50;;;;;;;;;;12810437;23;19997;-73
2023/08/25 14:28:14;;;;;;;10.70;3.50;;;;;;;;;;12809176;23;20017;-73
2023/08/25 14:33:14;;;;;;;8.13;4.07;;;;;;;;;;12810383;23;20016;-73
2023/08/25 14:38:15;;;;;;;10.13;3.30;;;;;;;;;;12810624;23;20355;-73
2023/08/25 14:43:15;;;;;;;10.02;3.70;;;;;;;;;;12796532;23;20029;-73
2023/08/25 14:48:15;;;;;;;11.88;3.90;;;;;;;;;;12809158;23;20052;-72
2023/08/25 14:53:16;;;;;;;8.33;3.83;;;;;;;;;;12809575;23;20052;-71
2023/08/25 14:58:16;;;;;;;7.45;3.30;;;;;;;;;;12807329;23;19993;-71
2023/08/25 15:03:16;;;;;;;9.88;4.10;;;;;;;;;;12808478;23;20307;-73
2023/08/25 15:08:16;;;;;;;9.70;4.15;;;;;;;;;;12808909;23;20005;-72
2023/08/25 15:13:17;;;;;;;10.77;4.28;;;;;;;;;;12808049;23;20181;-76
2023/08/25 15:18:17;;;;;;;9.50;5.10;;;;;;;;;;12808520;23;20001;-73
2023/08/25 15:23:17;;;;;;;7.22;4.45;;;;;;;;;;12810534;23;20263;-72
2023/08/25 15:28:18;;;;;;;9.30;5.68;;;;;;;;;;12805065;23;20033;-71
2023/08/25 15:33:22;;;;;;;9.17;5.57;;;;;;;;;;12804303;23;20092;-73
2023/08/25 15:38:23;;;;;;;9.10;4.97;;;;;;;;;;12807795;23;20036;-71
2023/08/25 15:43:24;;;;;;;12.57;5.40;;;;;;;;;;12786614;23;20327;-72
2023/08/25 15:48:25;;;;;;;10.60;5.40;;;;;;;;;;12807207;23;20020;-72
2023/08/25 15:53:26;;;;;;;11.45;5.20;;;;;;;;;;12806371;23;20307;-72
2023/08/25 15:58:26;;;;;;;7.95;5.13;;;;;;;;;;12803738;23;20203;-73
2023/08/25 16:03:27;;;;;;;10.87;5.47;;;;;;;;;;12759669;23;20001;-70
2023/08/25 16:08:28;;;;;;;7.95;4.72;;;;;;;;;;12807868;23;20000;-70
2023/08/25 16:13:28;;;;;;;12.77;5.50;;;;;;;;;;12805930;23;20500;-70
2023/08/25 16:18:29;;;;;;;12.98;5.18;;;;;;;;;;12804314;23;20001;-70
2023/08/25 16:23:30;;;;;;;10.23;6.10;;;;;;;;;;12802967;23;20057;-70
2023/08/25 16:28:31;;;;;;;12.48;5.50;;;;;;;;;;12801456;23;20032;-70
2023/08/25 16:33:32;;;;;;;11.18;5.28;;;;;;;;;;12803302;23;20422;-70
2023/08/25 16:38:34;;;;;;;9.52;5.47;;;;;;;;;;12806494;23;20109;-72
2023/08/25 16:43:34;;;;;;;10.82;6.07;;;;;;;;;;12794292;23;20222;-69
2023/08/25 16:48:35;;;;;;;8.73;5.80;;;;;;;;;;12761246;23;20295;-70
2023/08/25 16:53:35;;;;;;;16.42;5.47;;;;;;;;;;12809270;23;20001;-71
2023/08/25 16:58:35;;;;;;;10.88;5.80;;;;;;;;;;12806984;23;19997;-68
2023/08/25 17:03:35;;;;;;;9.18;5.88;;;;;;;;;;12806718;23;20071;-71
2023/08/25 17:08:36;;;;;;;10.68;6.75;;;;;;;;;;12808161;23;20200;-69
2023/08/25 17:13:36;;;;;;;12.23;6.95;;;;;;;;;;12807469;23;20164;-68
2023/08/25 17:18:36;;;;;;;12.25;6.40;;;;;;;;;;12760521;23;20730;-69
2023/08/25 17:23:37;;;;;;;9.13;6.60;;;;;;;;;;12807595;23;20017;-68
2023/08/25 17:28:37;;;;;;;10.40;6.25;;;;;;;;;;12807111;23;20296;-69
2023/08/25 17:33:37;;;;;;;15.93;7.28;;;;;;;;;;12806640;23;20008;-73
2023/08/25 17:38:38;;;;;;;20.67;7.85;;;;;;;;;;12807705;23;20004;-74
2023/08/25 17:43:38;;;;;;;18.42;10.70;;;;;;;;;;12795727;23;20019;-79
2023/08/25 17:48:38;;;;;;;18.63;8.43;;;;;;;;;;12807914;23;20003;-72
2023/08/25 17:53:41;;;;;;;57.17;28.60;;;;;;;;;;12808286;23;20011;-77
2023/08/25 17:58:55;;;;;;;37.42;16.65;;;;;;;;;;12786819;23;20199;-77
2023/08/25 18:03:55;;;;;;;40.17;15.38;;;;;;;;;;12807771;23;20000;-80
2023/08/25 18:08:56;;;;;;;23.70;11.53;;;;;;;;;;12807374;23;20000;-75
2023/08/25 18:13:56;;;;;;;22.07;12.90;;;;;;;;;;12807165;23;20044;-70
2023/08/25 18:18:56;;;;;;;21.73;12.65;;;;;;;;;;12760019;23;20235;-69
2023/08/25 18:23:56;;;;;;;18.93;10.37;;;;;;;;;;12806243;23;20424;-71
2023/08/25 18:28:57;;;;;;;19.02;11.07;;;;;;;;;;12803422;23;20227;-73
2023/08/25 18:33:57;;;;;;;15.63;8.53;;;;;;;;;;12803129;23;20197;-74
2023/08/25 18:38:58;;;;;;;12.75;8.70;;;;;;;;;;12756433;23;20005;-77
2023/08/25 18:43:58;;;;;;;16.60;10.93;;;;;;;;;;12792212;23;20080;-73
2023/08/25 18:48:58;;;;;;;22.85;10.73;;;;;;;;;;12758980;23;20302;-73
2023/08/25 18:53:59;;;;;;;16.08;9.32;;;;;;;;;;12802343;23;20183;-73
2023/08/25 18:58:59;;;;;;;12.77;8.15;;;;;;;;;;12802942;23;20001;-75
2023/08/25 19:03:59;;;;;;;14.73;8.37;;;;;;;;;;12758785;23;20000;-72
2023/08/25 19:08:59;;;;;;;16.58;9.23;;;;;;;;;;12804242;23;20051;-75
2023/08/25 19:14:00;;;;;;;14.52;9.93;;;;;;;;;;12758291;23;20037;-77
2023/08/25 19:19:00;;;;;;;14.57;9.02;;;;;;;;;;12804287;23;20268;-77
2023/08/25 19:24:00;;;;;;;13.20;8.48;;;;;;;;;;12806329;23;20337;-73
2023/08/25 19:29:01;;;;;;;11.38;8.90;;;;;;;;;;12807944;23;20219;-76
2023/08/25 19:34:02;;;;;;;13.10;8.80;;;;;;;;;;12807877;23;20233;-77
2023/08/25 19:39:02;;;;;;;12.60;9.30;;;;;;;;;;12809573;23;20089;-75
2023/08/25 19:44:02;;;;;;;14.25;9.43;;;;;;;;;;12796002;23;20214;-76
2023/08/25 19:49:03;;;;;;;11.23;7.80;;;;;;;;;;12807104;23;20005;-73
2023/08/25 19:54:07;;;;;;;14.25;9.23;;;;;;;;;;12805681;23;20305;-73
2023/08/25 19:59:07;;;;;;;17.15;8.98;;;;;;;;;;12801899;23;20005;-73
2023/08/25 20:04:10;;;;;;;14.07;8.03;;;;;;;;;;12807114;23;20012;-72
2023/08/25 20:09:10;;;;;;;10.15;7.03;;;;;;;;;;12808907;23;20009;-76
2023/08/25 20:14:10;;;;;;;15.75;8.80;;;;;;;;;;12808618;23;20346;-74
2023/08/25 20:19:11;;;;;;;14.07;9.30;;;;;;;;;;12809368;23;20008;-74
2023/08/25 20:24:11;;;;;;;17.85;8.75;;;;;;;;;;12809628;23;20008;-73
2023/08/25 20:29:12;;;;;;;15.63;8.32;;;;;;;;;;12760946;23;20016;-73
2023/08/25 20:34:15;;;;;;;15.43;8.63;;;;;;;;;;12808328;23;20001;-71
2023/08/25 20:39:15;;;;;;;12.52;8.68;;;;;;;;;;12807224;23;19997;-71
2023/08/25 20:44:15;;;;;;;13.65;8.25;;;;;;;;;;12790049;23;20263;-72
2023/08/25 20:49:16;;;;;;;13.07;8.88;;;;;;;;;;12806201;23;19993;-71
2023/08/25 20:54:16;;;;;;;11.10;8.85;;;;;;;;;;12806460;23;20218;-70
2023/08/25 20:59:16;;;;;;;13.48;8.52;;;;;;;;;;12804203;23;20223;-71
2023/08/25 21:04:16;;;;;;;14.07;8.50;;;;;;;;;;12807160;23;20027;-71
2023/08/25 21:09:17;;;;;;;12.85;8.77;;;;;;;;;;12807501;23;19993;-72
2023/08/25 21:14:17;;;;;;;14.95;9.88;;;;;;;;;;12806259;23;20023;-72
2023/08/25 21:19:19;;;;;;;15.15;9.32;;;;;;;;;;12808279;23;20004;-72
2023/08/25 21:24:19;;;;;;;14.88;10.25;;;;;;;;;;12805853;23;20000;-70
2023/08/25 21:29:20;;;;;;;15.82;9.05;;;;;;;;;;12805696;23;20009;-71
2023/08/25 21:34:20;;;;;;;11.98;9.82;;;;;;;;;;12804247;23;19989;-71
2023/08/25 21:39:20;;;;;;;15.37;9.63;;;;;;;;;;12804213;23;19996;-71
2023/08/25 21:44:21;;;;;;;14.70;9.90;;;;;;;;;;12755624;23;20236;-71
2023/08/25 21:49:21;;;;;;;19.55;10.70;;;;;;;;;;12757125;23;20005;-76
2023/08/25 21:54:21;;;;;;;20.05;10.95;;;;;;;;;;12808484;23;20068;-80
2023/08/25 21:59:21;;;;;;;14.73;9.95;;;;;;;;;;12763492;23;20023;-81
2023/08/25 22:04:22;;;;;;;15.82;9.85;;;;;;;;;;12809909;23;20287;-74
2023/08/25 22:09:22;;;;;;;15.33;10.40;;;;;;;;;;12762973;23;20001;-76
2023/08/25 22:14:22;;;;;;;18.45;10.80;;;;;;;;;;12808843;23;20270;-77
2023/08/25 22:19:23;;;;;;;20.50;9.95;;;;;;;;;;12812060;23;20298;-77
2023/08/25 22:24:23;;;;;;;14.35;10.13;;;;;;;;;;12812924;23;19997;-73
2023/08/25 22:29:23;;;;;;;16.40;9.95;;;;;;;;;;12812020;23;20068;-74
2023/08/25 22:34:23;;;;;;;17.48;9.63;;;;;;;;;;12813983;23;19997;-76
2023/08/25 22:39:24;;;;;;;16.40;10.05;;;;;;;;;;12812409;23;19993;-76
2023/08/25 22:44:24;;;;;;;18.08;10.57;;;;;;;;;;12796829;23;19997;-75
2023/08/25 22:49:24;;;;;;;16.77;10.47;;;;;;;;;;12765280;23;20009;-74
2023/08/25 22:54:24;;;;;;;14.43;10.55;;;;;;;;;;12812001;23;20223;-74
2023/08/25 22:59:25;;;;;;;18.73;10.50;;;;;;;;;;12811828;23;19989;-74
2023/08/25 23:04:25;;;;;;;17.05;10.05;;;;;;;;;;12811279;23;20048;-74
2023/08/25 23:09:25;;;;;;;17.77;11.68;;;;;;;;;;12811833;23;20004;-74
2023/08/25 23:14:25;;;;;;;18.45;10.65;;;;;;;;;;12811964;23;19985;-74
2023/08/25 23:19:26;;;;;;;20.98;11.13;;;;;;;;;;12812050;23;20001;-76
2023/08/25 23:24:40;;;;;;;20.20;11.13;;;;;;;;;;12812921;23;20017;-74
2023/08/25 23:29:40;;;;;;;20.50;12.20;;;;;;;;;;12810167;23;20519;-73
2023/08/25 23:34:41;;;;;;;19.30;11.87;;;;;;;;;;12812633;23;20012;-75
2023/08/25 23:39:41;;;;;;;18.00;12.23;;;;;;;;;;12812282;23;19999;-74
2023/08/25 23:44:41;;;;;;;15.68;12.63;;;;;;;;;;12792441;23;20008;-77
2023/08/25 23:49:42;;;;;;;21.25;11.95;;;;;;;;;;12810787;23;20168;-76
2023/08/25 23:54:42;;;;;;;22.50;11.70;;;;;;;;;;12818550;23;19993;-76
2023/08/25 23:59:43;;;;;;;22.15;12.85;;;;;;;;;;12772181;23;20170;-76
